createdAt,value
2018-10-16T00:00:19.653Z,16.07
2018-10-16T00:02:51.402Z,17.50
2018-10-16T00:05:20.289Z,17.70
2018-10-16T00:07:49.115Z,16.53
2018-10-16T00:10:24.973Z,17.53
2018-10-16T00:12:54.982Z,16.73
2018-10-16T00:15:23.886Z,18.10
2018-10-16T00:17:52.775Z,17.77
2018-10-16T00:20:21.620Z,19.03
2018-10-16T00:22:50.493Z,18.57
2018-10-16T00:25:19.403Z,18.63
2018-10-16T00:27:48.238Z,17.97
2018-10-16T00:30:17.090Z,18.50
2018-10-16T00:32:46.251Z,18.83
2018-10-16T00:35:15.030Z,18.43
2018-10-16T00:37:44.021Z,18.97
2018-10-16T00:43:09.997Z,17.37
2018-10-16T00:45:38.990Z,17.57
2018-10-16T00:48:07.831Z,17.50
2018-10-16T00:50:36.737Z,18.13
2018-10-16T00:53:05.574Z,18.13
2018-10-16T00:55:34.421Z,17.40
2018-10-16T00:58:03.751Z,18.87
2018-10-16T01:00:32.574Z,18.77
2018-10-16T01:03:01.486Z,18.17
2018-10-16T01:05:30.316Z,18.27
2018-10-16T01:07:59.186Z,17.87
2018-10-16T01:10:28.495Z,18.10
2018-10-16T01:12:57.451Z,19.27
2018-10-16T01:15:26.338Z,18.83
2018-10-16T01:17:55.826Z,19.60
2018-10-16T01:20:25.092Z,19.23
2018-10-16T01:22:53.974Z,17.90
2018-10-16T01:25:22.815Z,18.97
2018-10-16T01:27:51.673Z,18.97
2018-10-16T01:30:20.536Z,17.33
2018-10-16T01:32:49.452Z,17.77
2018-10-16T01:35:18.321Z,18.77
2018-10-16T01:37:47.201Z,19.00
2018-10-16T01:40:16.016Z,18.67
2018-10-16T01:42:44.883Z,19.13
2018-10-16T01:45:13.763Z,18.57
2018-10-16T01:47:42.611Z,17.87
2018-10-16T01:50:11.494Z,20.07
2018-10-16T01:52:40.385Z,18.67
2018-10-16T01:55:09.222Z,17.93
2018-10-16T01:57:38.082Z,18.57
2018-10-16T02:00:08.930Z,19.40
2018-10-16T02:02:37.848Z,18.97
2018-10-16T02:05:06.850Z,18.87
2018-10-16T02:07:35.775Z,19.07
2018-10-16T02:10:04.671Z,18.93
2018-10-16T02:12:33.542Z,18.73
2018-10-16T02:15:02.374Z,20.33
2018-10-16T02:17:31.205Z,19.50
2018-10-16T02:20:00.163Z,20.90
2018-10-16T02:22:29.051Z,20.80
2018-10-16T02:24:57.918Z,19.90
2018-10-16T02:27:26.855Z,19.70
2018-10-16T02:29:55.689Z,20.17
2018-10-16T02:32:24.551Z,20.23
2018-10-16T02:34:53.390Z,21.20
2018-10-16T02:37:22.215Z,19.57
2018-10-16T02:39:51.259Z,21.03
2018-10-16T02:42:20.148Z,21.30
2018-10-16T02:44:49.002Z,20.83
2018-10-16T02:47:17.811Z,19.67
2018-10-16T02:49:46.662Z,20.03
2018-10-16T02:52:15.525Z,19.90
2018-10-16T02:54:44.428Z,18.80
2018-10-16T02:57:13.319Z,20.30
2018-10-16T02:59:42.178Z,17.97
2018-10-16T03:02:13.205Z,19.57
2018-10-16T03:04:42.332Z,20.20
2018-10-16T03:07:11.345Z,20.83
2018-10-16T03:09:40.240Z,20.33
2018-10-16T03:12:09.107Z,22.63
2018-10-16T03:14:37.960Z,20.43
2018-10-16T03:17:06.866Z,20.43
2018-10-16T03:19:35.750Z,21.83
2018-10-16T03:22:05.027Z,21.30
2018-10-16T03:24:33.950Z,20.97
2018-10-16T03:27:03.116Z,22.40
2018-10-16T03:29:31.955Z,22.13
2018-10-16T03:32:00.901Z,22.13
2018-10-16T03:34:29.780Z,20.90
2018-10-16T03:36:58.823Z,22.17
2018-10-16T03:39:27.689Z,21.80
2018-10-16T03:41:56.671Z,21.67
2018-10-16T03:44:25.717Z,22.63
2018-10-16T03:46:54.678Z,21.67
2018-10-16T03:49:23.663Z,21.17
2018-10-16T03:51:52.604Z,21.40
2018-10-16T03:54:21.537Z,21.17
2018-10-16T03:56:50.559Z,22.67
2018-10-16T03:59:19.392Z,23.40
2018-10-16T04:01:48.318Z,22.10
2018-10-16T04:04:17.154Z,21.87
2018-10-16T04:06:46.144Z,22.03
2018-10-16T04:09:14.998Z,23.10
2018-10-16T04:11:43.894Z,24.57
2018-10-16T04:14:12.756Z,23.43
2018-10-16T04:16:41.623Z,22.77
2018-10-16T04:19:10.439Z,22.80
2018-10-16T04:21:43.151Z,22.90
2018-10-16T04:24:12.063Z,23.73
2018-10-16T04:26:41.045Z,24.33
2018-10-16T04:29:10.677Z,23.10
2018-10-16T04:31:39.768Z,23.63
2018-10-16T04:34:09.529Z,24.10
2018-10-16T04:36:38.437Z,25.13
2018-10-16T04:39:09.363Z,22.77
2018-10-16T04:41:38.259Z,22.73
2018-10-16T04:44:07.176Z,23.87
2018-10-16T04:46:37.226Z,22.80
2018-10-16T04:49:06.672Z,23.10
2018-10-16T04:51:35.531Z,24.63
2018-10-16T04:54:04.507Z,22.33
2018-10-16T04:56:33.456Z,23.63
2018-10-16T04:59:02.304Z,22.10
2018-10-16T05:01:31.211Z,22.33
2018-10-16T05:04:00.144Z,24.03
2018-10-16T05:06:28.938Z,23.33
2018-10-16T05:08:57.751Z,24.43
2018-10-16T05:11:26.611Z,23.17
2018-10-16T05:13:55.528Z,23.77
2018-10-16T05:16:24.421Z,24.07
2018-10-16T05:18:53.274Z,24.53
2018-10-16T05:21:22.078Z,23.17
2018-10-16T05:23:50.970Z,25.47
2018-10-16T05:26:19.787Z,23.60
2018-10-16T05:28:48.687Z,23.80
2018-10-16T05:31:17.689Z,23.13
2018-10-16T05:33:46.507Z,24.40
2018-10-16T05:36:15.467Z,25.43
2018-10-16T05:38:44.368Z,24.37
2018-10-16T05:41:13.171Z,24.23
2018-10-16T05:43:42.028Z,26.50
2018-10-16T05:46:10.850Z,26.27
2018-10-16T05:48:40.809Z,25.30
2018-10-16T05:51:09.678Z,27.77
2018-10-16T05:53:38.754Z,24.00
2018-10-16T05:56:07.899Z,26.97
2018-10-16T05:58:36.827Z,26.33
2018-10-16T06:01:05.670Z,26.57
2018-10-16T06:03:34.617Z,26.20
2018-10-16T06:06:03.451Z,26.10
2018-10-16T06:08:32.282Z,26.10
2018-10-16T06:11:01.362Z,26.07
2018-10-16T06:13:30.186Z,26.93
2018-10-16T06:15:59.063Z,27.27
2018-10-16T06:18:27.879Z,26.67
2018-10-16T06:20:56.693Z,27.23
2018-10-16T06:23:25.581Z,26.87
2018-10-16T06:25:54.398Z,25.00
2018-10-16T06:28:27.112Z,27.73
2018-10-16T06:30:58.285Z,28.27
2018-10-16T06:33:28.688Z,28.73
2018-10-16T06:35:57.532Z,30.47
2018-10-16T06:38:26.411Z,28.67
2018-10-16T06:40:55.510Z,27.63
2018-10-16T06:43:24.118Z,27.03
2018-10-16T06:45:52.967Z,30.10
2018-10-16T06:48:21.986Z,28.73
2018-10-16T06:50:50.691Z,30.63
2018-10-16T06:53:19.706Z,29.33
2018-10-16T06:55:48.522Z,29.43
2018-10-16T06:58:17.323Z,28.20
2018-10-16T07:00:46.180Z,28.67
2018-10-16T07:03:15.054Z,30.70
2018-10-16T07:05:43.936Z,30.67
2018-10-16T07:08:12.777Z,30.70
2018-10-16T07:10:41.615Z,30.20
2018-10-16T07:13:10.443Z,29.57
2018-10-16T07:15:39.334Z,29.33
2018-10-16T07:18:08.172Z,30.57
2018-10-16T07:20:37.030Z,31.23
2018-10-16T07:23:05.862Z,31.57
2018-10-16T07:25:34.730Z,31.70
2018-10-16T07:28:03.615Z,31.03
2018-10-16T07:30:32.498Z,30.70
2018-10-16T07:33:01.348Z,32.00
2018-10-16T07:35:30.203Z,29.90
2018-10-16T07:37:59.431Z,31.47
2018-10-16T07:40:28.187Z,30.63
2018-10-16T07:42:57.090Z,32.27
2018-10-16T07:45:26.582Z,33.43
2018-10-16T07:47:55.522Z,32.00
2018-10-16T07:50:24.375Z,32.27
2018-10-16T07:52:53.259Z,32.03
2018-10-16T07:55:22.099Z,32.97
2018-10-16T07:57:50.920Z,32.67
2018-10-16T08:00:19.851Z,33.27
2018-10-16T08:02:48.668Z,35.63
2018-10-16T08:05:17.497Z,33.27
2018-10-16T08:07:46.364Z,34.30
2018-10-16T08:10:15.179Z,31.40
2018-10-16T08:12:44.064Z,31.80
2018-10-16T08:15:12.890Z,32.37
2018-10-16T08:17:41.907Z,30.97
2018-10-16T08:20:10.810Z,30.23
2018-10-16T08:22:39.632Z,28.10
2018-10-16T08:25:08.479Z,28.07
2018-10-16T08:27:37.336Z,27.80
2018-10-16T08:30:07.659Z,29.47
2018-10-16T08:32:36.428Z,29.70
2018-10-16T08:35:05.362Z,30.27
2018-10-16T08:38:27.396Z,30.63
2018-10-16T08:40:57.133Z,29.10
2018-10-16T08:43:43.464Z,28.60
2018-10-16T08:46:23.855Z,28.70
2018-10-16T08:49:04.557Z,28.20
2018-10-16T08:51:41.043Z,29.10
2018-10-16T08:54:10.335Z,27.97
2018-10-16T08:56:42.373Z,28.30
2018-10-16T08:59:11.522Z,28.47
2018-10-16T09:01:40.395Z,29.07
2018-10-16T09:04:09.318Z,29.03
2018-10-16T09:06:38.152Z,30.43
2018-10-16T09:09:09.964Z,28.30
2018-10-16T09:11:38.838Z,28.33
2018-10-16T09:14:08.030Z,29.20
2018-10-16T09:16:36.866Z,27.33
2018-10-16T09:19:05.733Z,29.03
2018-10-16T09:21:34.571Z,27.73
2018-10-16T09:24:03.393Z,27.53
2018-10-16T09:26:32.244Z,29.43
2018-10-16T09:29:01.200Z,29.10
2018-10-16T09:31:31.059Z,30.73
2018-10-16T09:33:59.896Z,29.83
2018-10-16T09:36:28.853Z,27.90
2018-10-16T09:38:57.738Z,30.03
2018-10-16T09:41:26.840Z,29.27
2018-10-16T09:43:56.426Z,30.63
2018-10-16T09:46:26.268Z,29.60
2018-10-16T09:48:55.294Z,29.90
2018-10-16T09:51:24.175Z,31.23
2018-10-16T09:53:53.047Z,29.67
2018-10-16T09:56:21.926Z,33.30
2018-10-16T09:58:50.959Z,31.40
2018-10-16T10:01:25.213Z,30.60
2018-10-16T10:03:54.058Z,31.03
2018-10-16T10:06:22.948Z,30.97
2018-10-16T10:08:51.785Z,30.43
2018-10-16T10:11:20.623Z,31.37
2018-10-16T10:13:49.463Z,31.47
2018-10-16T10:16:18.305Z,31.13
2018-10-16T10:18:47.263Z,30.40
2018-10-16T10:21:16.123Z,28.93
2018-10-16T10:23:44.994Z,30.03
2018-10-16T10:26:13.882Z,31.27
2018-10-16T10:28:42.810Z,30.67
2018-10-16T10:31:11.890Z,30.03
2018-10-16T10:33:40.706Z,28.90
2018-10-16T10:36:09.665Z,29.17
2018-10-16T10:38:38.498Z,28.73
2018-10-16T10:41:09.402Z,27.50
2018-10-16T10:43:38.859Z,22.10
2018-10-16T10:46:08.065Z,18.27
2018-10-16T10:48:37.578Z,17.33
2018-10-16T10:51:06.830Z,17.57
2018-10-16T10:53:35.476Z,17.37
2018-10-16T10:56:04.359Z,17.07
2018-10-16T10:58:33.192Z,16.43
2018-10-16T11:01:03.849Z,16.10
2018-10-16T11:03:32.906Z,15.47
2018-10-16T11:06:01.727Z,15.53
2018-10-16T11:08:30.558Z,15.67
2018-10-16T11:10:59.393Z,14.70
2018-10-16T11:13:28.249Z,14.30
2018-10-16T11:15:57.107Z,11.47
2018-10-16T11:18:25.939Z,9.40
2018-10-16T11:20:54.817Z,9.07
2018-10-16T11:23:23.850Z,9.60
2018-10-16T11:25:52.771Z,10.10
2018-10-16T11:28:23.287Z,9.57
2018-10-16T11:30:52.175Z,9.53
2018-10-16T11:33:21.042Z,8.90
2018-10-16T11:35:49.884Z,9.17
2018-10-16T11:38:18.732Z,9.73
2018-10-16T11:40:47.554Z,10.17
2018-10-16T11:43:17.215Z,12.27
2018-10-16T11:45:46.259Z,12.50
2018-10-16T11:48:15.083Z,12.37
2018-10-16T11:50:43.907Z,12.23
2018-10-16T11:53:13.716Z,12.70
2018-10-16T11:55:42.526Z,13.80
2018-10-16T11:58:11.381Z,14.00
2018-10-16T12:00:40.212Z,14.73
2018-10-16T12:03:09.133Z,15.57
2018-10-16T12:05:37.993Z,15.70
2018-10-16T12:08:07.117Z,15.63
2018-10-16T12:10:35.947Z,13.97
2018-10-16T12:13:04.867Z,13.70
2018-10-16T12:15:34.342Z,13.97
2018-10-16T12:18:06.984Z,13.73
2018-10-16T12:20:38.990Z,14.93
2018-10-16T12:23:07.842Z,15.10
2018-10-16T12:25:36.709Z,15.77
2018-10-16T12:28:05.871Z,13.97
2018-10-16T12:30:34.773Z,14.60
2018-10-16T12:33:03.666Z,16.07
2018-10-16T12:35:32.496Z,16.57
2018-10-16T12:38:01.457Z,15.90
2018-10-16T12:40:30.300Z,15.80
2018-10-16T12:42:59.236Z,16.20
2018-10-16T12:45:27.993Z,17.00
2018-10-16T12:47:56.872Z,16.47
2018-10-16T12:50:25.751Z,15.73
2018-10-16T12:52:54.555Z,15.60
2018-10-16T12:55:23.369Z,15.33
2018-10-16T12:57:52.184Z,14.60
2018-10-16T13:00:21.067Z,14.73
2018-10-16T13:02:49.891Z,13.83
2018-10-16T13:05:18.763Z,13.43
2018-10-16T13:07:47.572Z,17.33
2018-10-16T13:10:17.777Z,19.83
2018-10-16T13:12:47.044Z,20.00
2018-10-16T13:15:16.683Z,19.20
2018-10-16T13:17:45.591Z,20.13
2018-10-16T13:20:15.395Z,19.00
2018-10-16T13:22:46.290Z,18.63
2018-10-16T13:25:15.871Z,20.63
2018-10-16T13:27:45.104Z,20.07
2018-10-16T13:30:17.729Z,21.43
2018-10-16T13:32:47.402Z,20.87
2018-10-16T13:35:17.409Z,22.40
2018-10-16T13:37:46.834Z,22.30
2018-10-16T13:40:15.967Z,19.63
2018-10-16T13:42:46.444Z,19.53
2018-10-16T13:45:16.444Z,19.50
2018-10-16T13:47:45.288Z,19.60
2018-10-16T13:50:15.400Z,18.93
2018-10-16T13:52:44.964Z,19.27
2018-10-16T13:55:14.254Z,16.83
2018-10-16T13:57:43.147Z,16.33
2018-10-16T14:00:15.357Z,16.50
2018-10-16T14:02:45.889Z,16.07
2018-10-16T14:05:14.787Z,16.13
2018-10-16T14:07:44.383Z,17.47
2018-10-16T14:10:14.470Z,18.07
2018-10-16T14:12:44.276Z,18.70
2018-10-16T14:15:14.355Z,18.53
2018-10-16T14:17:43.199Z,17.83
2018-10-16T14:20:12.264Z,17.50
2018-10-16T14:22:42.284Z,17.77
2018-10-16T14:25:12.781Z,17.53
2018-10-16T14:27:42.117Z,18.47
2018-10-16T14:30:13.192Z,18.10
2018-10-16T14:32:42.598Z,18.37
2018-10-16T14:35:11.904Z,21.93
2018-10-16T14:37:40.984Z,22.17
2018-10-16T14:40:12.029Z,23.67
2018-10-16T14:42:41.189Z,25.73
2018-10-16T14:45:11.216Z,27.53
2018-10-16T14:47:40.326Z,28.47
2018-10-16T14:50:10.510Z,29.63
2018-10-16T14:52:39.335Z,29.77
2018-10-16T14:55:08.371Z,28.63
2018-10-16T14:57:37.235Z,30.27
2018-10-16T15:00:08.645Z,32.30
2018-10-16T15:02:37.642Z,33.17
2018-10-16T15:05:07.367Z,34.70
2018-10-16T15:07:36.691Z,35.07
2018-10-16T15:10:06.653Z,37.30
2018-10-16T15:12:35.754Z,36.47
2018-10-16T15:15:05.863Z,37.13
2018-10-16T15:17:34.685Z,37.80
2018-10-16T15:20:03.572Z,38.90
2018-10-16T15:22:32.518Z,39.80
2018-10-16T15:25:01.310Z,38.33
2018-10-16T15:27:30.172Z,39.50
2018-10-16T15:29:59.100Z,39.27
2018-10-16T15:32:27.978Z,37.70
2018-10-16T15:34:56.827Z,38.50
2018-10-16T15:37:25.740Z,38.33
2018-10-16T15:39:55.132Z,37.60
2018-10-16T15:42:24.147Z,37.33
2018-10-16T15:44:52.960Z,36.73
2018-10-16T15:47:21.846Z,36.43
2018-10-16T15:49:50.780Z,37.47
2018-10-16T15:52:19.682Z,36.13
2018-10-16T15:54:48.519Z,35.10
2018-10-16T15:57:17.367Z,35.40
2018-10-16T15:59:46.203Z,34.43
2018-10-16T16:02:15.136Z,34.60
2018-10-16T16:04:43.985Z,36.27
2018-10-16T16:07:13.021Z,35.07
2018-10-16T16:09:41.858Z,36.00
2018-10-16T16:12:10.720Z,34.00
2018-10-16T16:14:39.708Z,36.33
2018-10-16T16:17:08.522Z,36.33
2018-10-16T16:19:37.367Z,35.57
2018-10-16T16:22:06.357Z,36.87
2018-10-16T16:24:35.119Z,36.63
2018-10-16T16:27:03.986Z,37.80
2018-10-16T16:29:32.816Z,39.40
2018-10-16T16:32:01.675Z,41.57
2018-10-16T16:34:30.534Z,40.17
2018-10-16T16:36:59.382Z,40.30
2018-10-16T16:39:28.360Z,39.17
2018-10-16T16:41:57.245Z,39.83
2018-10-16T16:44:26.103Z,42.50
2018-10-16T16:46:54.947Z,39.83
2018-10-16T16:49:23.922Z,42.17
2018-10-16T16:51:52.827Z,39.97
2018-10-16T16:54:21.894Z,39.93
2018-10-16T16:56:50.783Z,40.23
2018-10-16T16:59:19.648Z,43.20
2018-10-16T17:01:48.495Z,42.30
2018-10-16T17:04:17.335Z,41.70
2018-10-16T17:06:46.342Z,41.37
2018-10-16T17:09:15.195Z,40.90
2018-10-16T17:11:44.082Z,40.83
2018-10-16T17:14:12.893Z,41.23
2018-10-16T17:16:41.777Z,40.10
2018-10-16T17:19:10.575Z,40.13
2018-10-16T17:21:39.645Z,40.63
2018-10-16T17:24:08.535Z,41.33
2018-10-16T17:26:38.600Z,42.50
2018-10-16T17:29:07.516Z,43.83
2018-10-16T17:31:36.376Z,43.13
2018-10-16T17:34:07.666Z,42.20
2018-10-16T17:36:37.446Z,41.97
2018-10-16T17:39:07.865Z,42.03
2018-10-16T17:41:36.763Z,42.90
2018-10-16T17:44:06.140Z,43.43
2018-10-16T17:46:35.090Z,43.57
2018-10-16T17:49:04.255Z,44.40
2018-10-16T17:51:35.364Z,41.30
2018-10-16T17:54:04.523Z,42.77
2018-10-16T17:56:33.458Z,46.00
2018-10-16T17:59:02.469Z,42.63
2018-10-16T18:01:31.381Z,43.10
2018-10-16T18:04:00.235Z,42.70
2018-10-16T18:06:29.068Z,43.83
2018-10-16T18:08:58.044Z,42.80
2018-10-16T18:11:26.884Z,41.20
2018-10-16T18:13:55.746Z,43.77
2018-10-16T18:16:24.716Z,44.33
2018-10-16T18:18:53.603Z,42.90
2018-10-16T18:21:22.486Z,42.63
2018-10-16T18:23:51.495Z,42.33
2018-10-16T18:26:20.303Z,44.00
2018-10-16T18:28:49.224Z,42.57
2018-10-16T18:31:18.053Z,42.53
2018-10-16T18:33:47.046Z,42.67
2018-10-16T18:36:15.917Z,44.47
2018-10-16T18:38:44.731Z,42.13
2018-10-16T18:41:13.579Z,44.23
2018-10-16T18:43:42.491Z,41.47
2018-10-16T18:46:11.343Z,45.70
2018-10-16T18:48:40.316Z,42.87
2018-10-16T18:51:09.629Z,40.87
2018-10-16T18:53:39.197Z,44.10
2018-10-16T18:56:08.035Z,42.60
2018-10-16T18:58:37.023Z,40.77
2018-10-16T19:01:05.978Z,43.40
2018-10-16T19:03:34.836Z,43.73
2018-10-16T19:06:03.732Z,44.00
2018-10-16T19:08:33.018Z,40.33
2018-10-16T19:11:02.534Z,40.67
2018-10-16T19:13:31.564Z,42.67
2018-10-16T19:16:00.491Z,43.87
2018-10-16T19:18:29.401Z,41.93
2018-10-16T19:20:58.386Z,40.57
2018-10-16T19:23:27.167Z,41.10
2018-10-16T19:25:56.051Z,42.47
2018-10-16T19:28:25.267Z,40.20
2018-10-16T19:30:54.099Z,42.53
2018-10-16T19:33:23.119Z,38.40
2018-10-16T19:35:52.101Z,39.47
2018-10-16T19:38:21.124Z,39.00
2018-10-16T19:40:50.041Z,40.37
2018-10-16T19:43:18.995Z,40.60
2018-10-16T19:45:47.921Z,42.23
2018-10-16T19:48:16.818Z,41.03
2018-10-16T19:50:45.774Z,39.27
2018-10-16T19:53:14.607Z,42.17
2018-10-16T19:55:43.528Z,38.43
2018-10-16T19:58:12.349Z,37.13
2018-10-16T20:00:41.260Z,39.97
2018-10-16T20:03:10.256Z,39.27
2018-10-16T20:05:38.954Z,37.37
2018-10-16T20:08:07.940Z,37.90
2018-10-16T20:10:36.879Z,38.30
2018-10-16T20:13:05.924Z,40.67
2018-10-16T20:15:35.484Z,39.47
2018-10-16T20:18:04.700Z,39.47
2018-10-16T20:20:33.591Z,38.27
2018-10-16T20:23:02.520Z,44.20
2018-10-16T20:25:31.400Z,44.23
2018-10-16T20:28:00.247Z,42.43
2018-10-16T20:30:29.219Z,45.47
2018-10-16T20:32:58.145Z,43.60
2018-10-16T20:35:28.094Z,43.80
2018-10-16T20:37:57.169Z,40.30
2018-10-16T20:40:26.162Z,39.33
2018-10-16T20:42:55.145Z,42.50
2018-10-16T20:45:23.969Z,42.10
2018-10-16T20:47:52.795Z,43.33
2018-10-16T20:50:21.940Z,44.53
2018-10-16T20:52:50.880Z,42.77
2018-10-16T20:55:19.770Z,42.47
2018-10-16T20:57:48.691Z,43.23
2018-10-16T21:00:18.414Z,42.87
2018-10-16T21:02:47.295Z,41.80
2018-10-16T21:05:16.398Z,40.63
2018-10-16T21:07:45.204Z,43.87
2018-10-16T21:10:14.086Z,42.63
2018-10-16T21:12:42.928Z,42.30
2018-10-16T21:15:11.749Z,42.40
2018-10-16T21:17:40.580Z,37.97
2018-10-16T21:20:10.023Z,37.23
2018-10-16T21:22:39.014Z,36.73
2018-10-16T21:25:08.408Z,35.90
2018-10-16T21:27:37.408Z,37.90
2018-10-16T21:30:08.099Z,38.20
2018-10-16T21:32:36.966Z,37.10
2018-10-16T21:35:06.233Z,37.17
2018-10-16T21:37:35.093Z,38.27
2018-10-16T21:40:04.537Z,39.47
2018-10-16T21:42:35.951Z,40.23
2018-10-16T21:45:05.932Z,39.47
2018-10-16T21:47:35.090Z,37.20
2018-10-16T21:50:03.950Z,39.73
2018-10-16T21:52:32.859Z,39.60
2018-10-16T21:55:01.761Z,39.57
2018-10-16T21:57:30.663Z,40.77
2018-10-16T21:59:59.917Z,37.63
2018-10-16T22:02:34.213Z,40.77
2018-10-16T22:05:04.902Z,38.83
2018-10-16T22:07:33.807Z,41.40
2018-10-16T22:10:02.673Z,40.63
2018-10-16T22:12:31.514Z,39.13
2018-10-16T22:15:00.346Z,42.37
2018-10-16T22:17:29.302Z,42.17
2018-10-16T22:19:58.159Z,40.40
2018-10-16T22:22:27.046Z,38.80
2018-10-16T22:24:56.033Z,36.40
2018-10-16T22:27:24.819Z,38.00
2018-10-16T22:29:53.718Z,38.70
2018-10-16T22:32:22.611Z,35.63
2018-10-16T22:34:51.486Z,34.83
2018-10-16T22:37:20.311Z,35.90
2018-10-16T22:39:49.117Z,36.50
2018-10-16T22:42:17.958Z,36.23
2018-10-16T22:44:46.962Z,36.90
2018-10-16T22:47:15.820Z,37.47
2018-10-16T22:49:44.575Z,34.90
2018-10-16T22:52:13.429Z,35.03
2018-10-16T22:54:42.344Z,31.50
2018-10-16T22:57:11.143Z,37.87
2018-10-16T22:59:40.423Z,37.60
2018-10-16T23:02:09.219Z,35.90
2018-10-16T23:04:38.094Z,37.60
2018-10-16T23:07:06.980Z,34.53
2018-10-16T23:09:35.831Z,35.77
2018-10-16T23:12:05.447Z,34.87
2018-10-16T23:14:34.343Z,34.57
2018-10-16T23:17:03.257Z,33.20
2018-10-16T23:19:32.106Z,32.60
2018-10-16T23:22:01.026Z,31.60
2018-10-16T23:24:29.890Z,32.53
2018-10-16T23:26:58.900Z,33.17
2018-10-16T23:29:27.829Z,34.93
2018-10-16T23:31:56.922Z,34.43
2018-10-16T23:34:25.824Z,34.50
2018-10-16T23:36:54.753Z,36.37
2018-10-16T23:39:23.562Z,36.43
2018-10-16T23:41:52.377Z,41.43
2018-10-16T23:44:21.249Z,42.03
2018-10-16T23:46:50.159Z,38.17
2018-10-16T23:49:21.642Z,40.23
2018-10-16T23:51:50.458Z,39.90
2018-10-16T23:54:19.390Z,40.87
2018-10-16T23:56:48.253Z,40.07
2018-10-16T23:59:17.066Z,39.10
